LIRN/NAP METAR and TAF weather

Enter ICAO airport designator
Station Type Date Time Source
LIRN METAR 2020/01/27 16:50 UTC NOAA

LIRN 271650Z VRB02KT 9999 FEW035 12/09 Q1021 NOSIG


Station Type Date Time Source
LIRN Decoded METAR 2020/01/27 16:50 UTC NOAA

Napoli / Capodichino, Italy (LIRN) 40-51N 014-18E 72M
Jan 27, 2020 - 11:50 AM EST / 2020.01.27 1650 UTC
Wind: Variable at 2 MPH (2 KT):0
Visibility: greater than 7 mile(s):0
Sky conditions: mostly clear
Temperature: 53 F (12 C)
Dew Point: 48 F (9 C)
Relative Humidity: 81%
Pressure (altimeter): 30.15 in. Hg (1021 hPa)
ob: LIRN 271650Z VRB02KT 9999 FEW035 12/09 Q1021 NOSIG
cycle: 17

Station Type Date Time Source
LIRN TAF 2020/01/27 12:33 UTC NOAA

TAF
AMD TAF
AMD LIRN 271128Z 2712/2812 VRB05KT CAVOK
BECMG 2804/2806 24014KT
TEMPO 2806/2812 RA

Example: see airport list